TimeCDT,TemperatureF,Dew PointF,Humidity,Sea Level PressureIn,VisibilityMPH,Wind Direction,Wind SpeedMPH,Gust SpeedMPH,PrecipitationIn,Events,Conditions,WindDirDegrees,DateUTC
12:58 AM,51.1,39.4,64,30.23,10.0,SSE,4.6,-,N/A,,Clear,150,2013-04-22 05:58:00
1:58 AM,49.3,39.4,69,30.23,10.0,SE,5.8,-,N/A,,Clear,140,2013-04-22 06:58:00
2:58 AM,46.2,39.4,77,30.21,10.0,SSE,4.6,-,N/A,,Clear,150,2013-04-22 07:58:00
3:58 AM,44.6,39.4,82,30.20,10.0,ESE,5.8,-,N/A,,Clear,120,2013-04-22 08:58:00
4:58 AM,44.8,38.8,80,30.19,10.0,SE,6.9,-,N/A,,Clear,130,2013-04-22 09:58:00
5:58 AM,43.9,36.9,76,30.19,10.0,SE,5.8,-,N/A,,Clear,130,2013-04-22 10:58:00
6:58 AM,45.0,36.9,73,30.19,10.0,ESE,5.8,-,N/A,,Clear,120,2013-04-22 11:58:00
7:55 AM,48.2,36.7,64,30.19,10.0,SSE,8.1,-,N/A,,Clear,150,2013-04-22 12:55:00
8:55 AM,54.9,36.9,51,30.16,10.0,SE,11.5,-,N/A,,Clear,140,2013-04-22 13:55:00
9:55 AM,60.4,35.8,40,30.16,10.0,SSE,6.9,-,N/A,,Clear,160,2013-04-22 14:55:00
10:55 AM,65.8,34.9,32,30.13,10.0,South,6.9,-,N/A,,Clear,180,2013-04-22 15:55:00
11:58 AM,68.0,32.9,27,30.13,10.0,South,9.2,17.3,N/A,,Clear,180,2013-04-22 16:58:00
12:58 PM,67.8,34.2,29,30.10,9.0,South,11.5,-,N/A,,Scattered Clouds,170,2013-04-22 17:58:00
1:58 PM,69.6,31.1,24,30.07,10.0,South,11.5,17.3,N/A,,Scattered Clouds,170,2013-04-22 18:58:00
2:29 PM,69.8,32.0,25,30.04,10.0,South,13.8,20.7,N/A,,Partly Cloudy,170,2013-04-22 19:29:00
2:58 PM,70.2,32.7,25,30.03,10.0,South,13.8,-,N/A,,Partly Cloudy,170,2013-04-22 19:58:00
3:58 PM,71.1,34.9,27,30.01,10.0,South,12.7,-,N/A,,Scattered Clouds,170,2013-04-22 20:58:00
4:58 PM,68.5,34.7,29,29.99,10.0,South,10.4,19.6,N/A,,Mostly Cloudy,180,2013-04-22 21:58:00
5:58 PM,67.3,35.4,31,29.99,10.0,South,10.4,17.3,N/A,,Scattered Clouds,170,2013-04-22 22:58:00
6:58 PM,66.4,34.7,31,29.99,10.0,South,12.7,20.7,N/A,,Partly Cloudy,170,2013-04-22 23:58:00
7:40 PM,64.4,37.4,37,29.95,10.0,SSE,12.7,20.7,N/A,Rain,Light Rain,150,2013-04-23 00:40:00
7:50 PM,64.4,37.4,37,29.95,10.0,SSE,15.0,21.9,N/A,,Overcast,150,2013-04-23 00:50:00
7:58 PM,63.9,38.3,39,29.96,10.0,SSE,12.7,21.9,0.00,,Overcast,150,2013-04-23 00:58:00
8:58 PM,62.4,40.1,44,30.00,10.0,SSE,9.2,-,N/A,,Overcast,150,2013-04-23 01:58:00
9:58 PM,60.8,41.7,49,30.01,10.0,SE,8.1,-,N/A,,Overcast,140,2013-04-23 02:58:00
10:58 PM,58.6,42.6,55,29.99,10.0,SSE,10.4,-,N/A,,Clear,150,2013-04-23 03:58:00